createdAt,value
2018-07-31T00:00:22.567Z,25.71
2018-07-31T00:02:51.635Z,25.64
2018-07-31T00:05:21.141Z,25.61
2018-07-31T00:07:49.607Z,25.58
2018-07-31T00:10:17.939Z,25.53
2018-07-31T00:12:46.315Z,25.49
2018-07-31T00:15:14.763Z,25.48
2018-07-31T00:17:43.391Z,25.50
2018-07-31T00:20:11.779Z,25.49
2018-07-31T00:22:40.086Z,25.49
2018-07-31T00:25:08.743Z,25.40
2018-07-31T00:27:37.159Z,25.44
2018-07-31T00:30:07.928Z,25.42
2018-07-31T00:32:36.360Z,25.40
2018-07-31T00:35:04.764Z,25.44
2018-07-31T00:37:33.630Z,25.44
2018-07-31T00:40:01.963Z,25.43
2018-07-31T00:42:30.616Z,25.40
2018-07-31T00:44:59.064Z,25.37
2018-07-31T00:47:27.408Z,25.33
2018-07-31T00:49:55.786Z,25.20
2018-07-31T00:52:24.197Z,25.24
2018-07-31T00:54:53.616Z,25.29
2018-07-31T00:57:21.976Z,25.35
2018-07-31T00:59:50.645Z,25.36
2018-07-31T01:02:19.016Z,25.24
2018-07-31T01:04:49.118Z,25.04
2018-07-31T01:07:18.299Z,25.12
2018-07-31T01:09:48.242Z,25.24
2018-07-31T01:12:18.415Z,25.24
2018-07-31T01:14:47.386Z,25.10
2018-07-31T01:17:15.848Z,25.11
2018-07-31T01:19:45.738Z,25.15
2018-07-31T01:22:14.234Z,25.26
2018-07-31T01:24:42.644Z,25.20
2018-07-31T01:27:11.124Z,25.19
2018-07-31T01:29:39.601Z,25.14
2018-07-31T01:32:08.073Z,25.18
2018-07-31T01:34:36.467Z,25.22
2018-07-31T01:37:04.798Z,25.24
2018-07-31T01:39:33.134Z,25.22
2018-07-31T01:42:01.469Z,25.08
2018-07-31T01:44:29.991Z,25.16
2018-07-31T01:46:58.363Z,25.13
2018-07-31T01:49:26.742Z,25.11
2018-07-31T01:51:55.126Z,25.00
2018-07-31T01:54:25.894Z,25.10
2018-07-31T01:56:54.285Z,24.93
2018-07-31T01:59:22.604Z,24.98
2018-07-31T02:01:51.129Z,24.95
2018-07-31T02:04:19.883Z,24.89
2018-07-31T02:06:48.366Z,24.85
2018-07-31T02:09:16.801Z,24.83
2018-07-31T02:11:45.162Z,24.72
2018-07-31T02:14:13.495Z,24.73
2018-07-31T02:16:41.806Z,24.76
2018-07-31T02:19:10.157Z,24.76
2018-07-31T02:21:38.718Z,24.76
2018-07-31T02:24:07.062Z,24.64
2018-07-31T02:26:35.373Z,24.68
2018-07-31T02:29:03.747Z,24.68
2018-07-31T02:31:32.079Z,24.76
2018-07-31T02:34:00.820Z,24.75
2018-07-31T02:36:29.138Z,24.63
2018-07-31T02:38:57.562Z,24.74
2018-07-31T02:41:25.941Z,24.75
2018-07-31T02:43:54.294Z,24.83
2018-07-31T02:46:22.648Z,24.73
2018-07-31T02:48:51.009Z,24.65
2018-07-31T02:51:19.349Z,24.63
2018-07-31T02:53:47.700Z,24.56
2018-07-31T02:56:16.026Z,24.66
2018-07-31T02:58:44.388Z,24.53
2018-07-31T03:01:12.747Z,24.52
2018-07-31T03:03:41.096Z,24.40
2018-07-31T03:06:09.420Z,24.47
2018-07-31T03:08:37.735Z,24.43
2018-07-31T03:11:06.427Z,24.29
2018-07-31T03:13:34.749Z,24.29
2018-07-31T03:16:03.123Z,24.17
2018-07-31T03:18:31.584Z,24.11
2018-07-31T03:20:59.891Z,24.03
2018-07-31T03:23:28.236Z,24.00
2018-07-31T03:25:56.588Z,24.02
2018-07-31T03:28:24.999Z,23.98
2018-07-31T03:30:53.333Z,23.92
2018-07-31T03:33:21.822Z,23.84
2018-07-31T03:35:50.156Z,23.80
2018-07-31T03:38:18.483Z,23.78
2018-07-31T03:40:46.955Z,23.73
2018-07-31T03:43:15.811Z,23.74
2018-07-31T03:45:44.121Z,23.73
2018-07-31T03:48:12.716Z,23.67
2018-07-31T03:50:41.190Z,23.64
2018-07-31T03:53:09.546Z,23.63
2018-07-31T03:55:37.921Z,23.60
2018-07-31T03:58:06.242Z,23.58
2018-07-31T04:00:34.551Z,23.52
2018-07-31T04:03:04.145Z,23.45
2018-07-31T04:05:33.841Z,23.42
2018-07-31T04:08:02.105Z,23.44
2018-07-31T04:10:30.792Z,23.43
2018-07-31T04:12:59.117Z,23.43
2018-07-31T04:15:27.434Z,23.40
2018-07-31T04:17:58.092Z,23.37
2018-07-31T04:20:28.309Z,23.35
2018-07-31T04:22:56.712Z,23.33
2018-07-31T04:25:25.686Z,23.28
2018-07-31T04:27:54.400Z,23.31
2018-07-31T04:30:22.714Z,23.34
2018-07-31T04:32:51.099Z,23.32
2018-07-31T04:35:19.464Z,23.32
2018-07-31T04:37:47.844Z,23.34
2018-07-31T04:40:16.229Z,23.37
2018-07-31T04:42:44.579Z,23.38
2018-07-31T04:45:12.957Z,23.35
2018-07-31T04:47:41.285Z,23.37
2018-07-31T04:50:10.349Z,23.45
2018-07-31T04:52:38.726Z,23.55
2018-07-31T04:55:07.087Z,23.57
2018-07-31T04:57:35.415Z,23.63
2018-07-31T05:00:03.839Z,23.69
2018-07-31T05:02:32.229Z,23.74
2018-07-31T05:05:00.616Z,23.75
2018-07-31T05:07:28.987Z,23.85
2018-07-31T05:09:57.340Z,23.90
2018-07-31T05:12:25.734Z,23.93
2018-07-31T05:14:54.100Z,23.98
2018-07-31T05:17:22.427Z,24.03
2018-07-31T05:19:50.867Z,24.07
2018-07-31T05:22:19.187Z,24.14
2018-07-31T05:24:47.565Z,24.13
2018-07-31T05:27:15.909Z,24.20
2018-07-31T05:29:44.826Z,24.25
2018-07-31T05:32:13.154Z,24.26
2018-07-31T05:34:41.479Z,24.38
2018-07-31T05:37:09.785Z,24.47
2018-07-31T05:39:38.095Z,24.53
2018-07-31T05:42:06.438Z,24.61
2018-07-31T05:44:34.775Z,24.57
2018-07-31T05:47:03.111Z,24.60
2018-07-31T05:49:31.454Z,24.69
2018-07-31T05:51:59.860Z,24.82
2018-07-31T05:54:28.145Z,24.90
2018-07-31T05:56:56.728Z,24.97
2018-07-31T05:59:25.081Z,25.05
2018-07-31T06:01:53.427Z,25.28
2018-07-31T06:04:21.764Z,25.70
2018-07-31T06:06:50.096Z,26.37
2018-07-31T06:09:18.420Z,26.87
2018-07-31T06:11:46.776Z,27.21
2018-07-31T06:14:15.124Z,27.67
2018-07-31T06:16:43.497Z,27.98
2018-07-31T06:19:11.845Z,28.26
2018-07-31T06:21:40.167Z,28.62
2018-07-31T06:24:08.751Z,28.97
2018-07-31T06:26:37.094Z,29.59
2018-07-31T06:29:05.431Z,29.89
2018-07-31T06:31:33.794Z,30.09
2018-07-31T06:34:02.137Z,29.73
2018-07-31T06:36:30.475Z,29.03
2018-07-31T06:38:58.846Z,29.19
2018-07-31T06:41:27.151Z,29.06
2018-07-31T06:43:55.515Z,29.08
2018-07-31T06:46:23.847Z,29.53
2018-07-31T06:48:52.396Z,29.49
2018-07-31T06:51:20.813Z,29.80
2018-07-31T06:53:49.106Z,29.56
2018-07-31T06:56:17.426Z,29.67
2018-07-31T06:58:45.756Z,29.99
2018-07-31T07:01:14.095Z,30.53
2018-07-31T07:03:42.461Z,30.60
2018-07-31T07:06:10.815Z,29.88
2018-07-31T07:08:39.167Z,30.42
2018-07-31T07:11:07.520Z,30.43
2018-07-31T07:13:35.856Z,30.73
2018-07-31T07:16:04.178Z,30.62
2018-07-31T07:18:33.147Z,30.77
2018-07-31T07:21:01.466Z,30.90
2018-07-31T07:23:29.819Z,31.46
2018-07-31T07:25:58.119Z,32.12
2018-07-31T07:28:26.486Z,32.17
2018-07-31T07:30:54.905Z,32.37
2018-07-31T07:33:24.480Z,32.59
2018-07-31T07:35:52.834Z,32.37
2018-07-31T07:38:21.249Z,32.04
2018-07-31T07:40:49.670Z,31.58
2018-07-31T07:43:18.067Z,31.94
2018-07-31T07:45:46.524Z,32.20
2018-07-31T07:48:14.917Z,32.34
2018-07-31T07:50:43.257Z,32.46
2018-07-31T07:53:11.643Z,32.21
2018-07-31T07:55:39.975Z,32.15
2018-07-31T07:58:08.330Z,32.34
2018-07-31T08:00:36.707Z,32.75
2018-07-31T08:03:05.311Z,32.51
2018-07-31T08:05:34.309Z,32.55
2018-07-31T08:08:03.686Z,32.80
2018-07-31T08:10:32.018Z,33.35
2018-07-31T08:13:00.402Z,33.11
2018-07-31T08:15:28.823Z,33.55
2018-07-31T08:17:57.139Z,33.69
2018-07-31T08:20:25.541Z,33.30
2018-07-31T08:22:53.912Z,33.13
2018-07-31T08:25:22.249Z,33.07
2018-07-31T08:27:50.660Z,32.83
2018-07-31T08:30:19.046Z,32.63
2018-07-31T08:32:47.435Z,32.67
2018-07-31T08:35:15.873Z,32.71
2018-07-31T08:37:44.791Z,32.55
2018-07-31T08:40:13.264Z,32.41
2018-07-31T08:42:41.626Z,32.52
2018-07-31T08:45:09.928Z,32.38
2018-07-31T08:47:38.346Z,32.49
2018-07-31T08:50:06.792Z,32.53
2018-07-31T08:52:35.112Z,32.67
2018-07-31T08:55:03.428Z,32.52
2018-07-31T08:57:31.807Z,32.39
2018-07-31T09:00:00.162Z,32.36
2018-07-31T09:02:28.546Z,32.41
2018-07-31T09:04:56.856Z,32.45
2018-07-31T09:07:25.206Z,32.39
2018-07-31T09:09:53.641Z,32.63
2018-07-31T09:12:21.994Z,32.92
2018-07-31T09:14:50.318Z,32.98
2018-07-31T09:17:18.675Z,32.94
2018-07-31T09:19:46.999Z,32.94
2018-07-31T09:22:15.364Z,33.02
2018-07-31T09:24:43.674Z,33.15
2018-07-31T09:27:12.095Z,33.24
2018-07-31T09:29:40.416Z,33.33
2018-07-31T09:32:08.854Z,33.46
2018-07-31T09:34:42.515Z,33.53
2018-07-31T09:37:10.851Z,33.61
2018-07-31T09:39:39.181Z,33.49
2018-07-31T09:42:07.641Z,33.71
2018-07-31T09:44:36.014Z,33.68
2018-07-31T09:47:04.868Z,33.76
2018-07-31T09:49:33.228Z,33.71
2018-07-31T09:52:01.563Z,33.77
2018-07-31T09:54:29.903Z,33.84
2018-07-31T09:56:58.282Z,34.12
2018-07-31T09:59:26.653Z,34.05
2018-07-31T10:01:55.060Z,34.04
2018-07-31T10:04:23.408Z,33.89
2018-07-31T10:06:52.629Z,33.87
2018-07-31T10:09:20.986Z,33.95
2018-07-31T10:11:49.336Z,34.26
2018-07-31T10:14:17.641Z,34.51
2018-07-31T10:16:46.021Z,34.49
2018-07-31T10:19:15.113Z,34.46
2018-07-31T10:21:43.594Z,34.48
2018-07-31T10:24:11.985Z,34.64
2018-07-31T10:26:40.253Z,34.59
2018-07-31T10:29:08.563Z,34.72
2018-07-31T10:31:36.968Z,34.60
2018-07-31T10:34:05.293Z,34.81
2018-07-31T10:36:33.629Z,34.78
2018-07-31T10:39:02.030Z,34.68
2018-07-31T10:41:30.355Z,34.89
2018-07-31T10:43:58.751Z,35.01
2018-07-31T10:46:27.079Z,35.01
2018-07-31T10:48:55.493Z,35.15
2018-07-31T10:51:24.035Z,35.13
2018-07-31T10:53:52.327Z,34.95
2018-07-31T10:56:20.725Z,34.98
2018-07-31T10:58:49.048Z,34.79
2018-07-31T11:01:17.340Z,34.92
2018-07-31T11:03:46.086Z,35.16
2018-07-31T11:06:14.552Z,35.37
2018-07-31T11:08:42.859Z,35.26
2018-07-31T11:11:11.296Z,35.28
2018-07-31T11:13:39.674Z,35.25
2018-07-31T11:16:07.992Z,35.38
2018-07-31T11:18:36.590Z,35.31
2018-07-31T11:21:04.966Z,35.03
2018-07-31T11:23:33.307Z,35.16
2018-07-31T11:26:01.667Z,35.15
2018-07-31T11:28:29.951Z,35.13
2018-07-31T11:30:58.260Z,35.11
2018-07-31T11:33:26.590Z,35.00
2018-07-31T11:35:54.943Z,34.77
2018-07-31T11:38:23.275Z,34.76
2018-07-31T11:40:51.612Z,34.81
2018-07-31T11:43:19.924Z,34.89
2018-07-31T11:45:48.275Z,34.80
2018-07-31T11:48:16.642Z,34.67
2018-07-31T11:50:44.939Z,34.72
2018-07-31T11:53:13.324Z,34.59
2018-07-31T11:55:41.650Z,34.72
2018-07-31T11:58:09.988Z,34.81
2018-07-31T12:00:38.344Z,35.02
2018-07-31T12:03:07.458Z,35.13
2018-07-31T12:05:36.057Z,34.96
2018-07-31T12:08:04.376Z,34.85
2018-07-31T12:10:32.776Z,34.90
2018-07-31T12:13:01.082Z,34.91
2018-07-31T12:15:29.391Z,34.89
2018-07-31T12:17:58.202Z,34.89
2018-07-31T12:20:26.568Z,34.82
2018-07-31T12:22:56.859Z,34.78
2018-07-31T12:25:25.182Z,34.81
2018-07-31T12:27:53.540Z,34.89
2018-07-31T12:30:21.916Z,35.12
2018-07-31T12:32:50.271Z,35.25
2018-07-31T12:35:18.546Z,35.31
2018-07-31T12:37:46.915Z,35.38
2018-07-31T12:40:15.253Z,35.28
2018-07-31T12:42:43.637Z,35.38
2018-07-31T12:45:12.076Z,35.33
2018-07-31T12:47:40.397Z,35.44
2018-07-31T12:50:08.886Z,35.35
2018-07-31T12:52:37.216Z,35.48
2018-07-31T12:55:05.693Z,35.47
2018-07-31T12:57:34.019Z,35.55
2018-07-31T13:00:02.388Z,35.61
2018-07-31T13:02:30.695Z,35.61
2018-07-31T13:04:59.043Z,35.53
2018-07-31T13:07:27.391Z,35.55
2018-07-31T13:09:55.739Z,35.64
2018-07-31T13:12:24.038Z,35.69
2018-07-31T13:14:52.430Z,35.49
2018-07-31T13:17:20.838Z,35.67
2018-07-31T13:19:49.183Z,35.69
2018-07-31T13:22:18.178Z,35.59
2018-07-31T13:24:46.655Z,35.45
2018-07-31T13:27:14.980Z,35.39
2018-07-31T13:29:43.299Z,35.56
2018-07-31T13:32:11.641Z,35.61
2018-07-31T13:34:39.958Z,35.76
2018-07-31T13:37:08.638Z,35.76
2018-07-31T13:39:37.517Z,35.77
2018-07-31T13:42:06.129Z,35.86
2018-07-31T13:44:34.549Z,35.93
2018-07-31T13:47:03.016Z,36.03
2018-07-31T13:49:31.414Z,35.59
2018-07-31T13:51:59.707Z,35.50
2018-07-31T13:54:28.068Z,35.42
2018-07-31T13:56:56.484Z,35.83
2018-07-31T13:59:24.857Z,35.78
2018-07-31T14:01:53.166Z,35.85
2018-07-31T14:04:21.775Z,35.82
2018-07-31T14:06:50.114Z,35.97
2018-07-31T14:09:18.442Z,35.78
2018-07-31T14:11:46.764Z,35.76
2018-07-31T14:14:16.354Z,35.81
2018-07-31T14:16:46.617Z,35.84
2018-07-31T14:19:15.138Z,35.73
2018-07-31T14:21:43.689Z,35.90
2018-07-31T14:24:12.042Z,35.90
2018-07-31T14:26:41.809Z,35.90
2018-07-31T14:29:10.169Z,35.91
2018-07-31T14:31:39.183Z,35.83
2018-07-31T14:34:11.511Z,35.87
2018-07-31T14:36:40.094Z,35.84
2018-07-31T14:39:09.796Z,35.63
2018-07-31T14:41:38.166Z,35.57
2018-07-31T14:44:06.801Z,35.60
2018-07-31T14:46:35.165Z,35.66
2018-07-31T14:49:03.939Z,35.60
2018-07-31T14:51:32.924Z,35.68
2018-07-31T14:54:01.511Z,35.47
2018-07-31T14:56:29.838Z,35.32
2018-07-31T14:58:58.164Z,35.42
2018-07-31T15:01:26.468Z,35.49
2018-07-31T15:03:54.793Z,35.48
2018-07-31T15:06:23.128Z,35.25
2018-07-31T15:08:51.430Z,35.12
2018-07-31T15:11:19.792Z,35.19
2018-07-31T15:13:48.101Z,35.23
2018-07-31T15:16:16.422Z,35.16
2018-07-31T15:18:44.729Z,34.95
2018-07-31T15:21:13.090Z,35.07
2018-07-31T15:23:41.367Z,34.95
2018-07-31T15:26:09.728Z,34.87
2018-07-31T15:28:39.046Z,34.78
2018-07-31T15:31:08.293Z,34.67
2018-07-31T15:33:37.358Z,34.57
2018-07-31T15:36:06.454Z,34.62
2018-07-31T15:38:35.453Z,34.47
2018-07-31T15:41:04.557Z,34.47
2018-07-31T15:43:33.773Z,34.40
2018-07-31T15:46:02.795Z,34.42
2018-07-31T15:48:31.745Z,34.45
2018-07-31T15:51:00.638Z,34.51
2018-07-31T15:53:29.837Z,34.47
2018-07-31T15:55:59.634Z,34.48
2018-07-31T15:58:30.684Z,34.49
2018-07-31T16:00:59.255Z,34.41
2018-07-31T16:03:29.041Z,34.38
2018-07-31T16:05:58.162Z,34.29
2018-07-31T16:08:27.389Z,34.24
2018-07-31T16:10:56.681Z,34.17
2018-07-31T16:13:25.941Z,34.14
2018-07-31T16:15:55.117Z,34.11
2018-07-31T16:18:24.250Z,34.15
2018-07-31T16:20:53.415Z,34.10
2018-07-31T16:23:22.861Z,34.11
2018-07-31T16:25:54.001Z,34.15
2018-07-31T16:28:23.341Z,34.06
2018-07-31T16:30:52.312Z,34.14
2018-07-31T16:33:20.830Z,34.14
2018-07-31T16:35:49.171Z,34.17
2018-07-31T16:38:18.845Z,34.10
2018-07-31T16:40:47.509Z,34.12
2018-07-31T16:43:16.197Z,34.08
2018-07-31T16:45:44.659Z,34.04
2018-07-31T16:48:12.991Z,33.94
2018-07-31T16:50:42.179Z,34.06
2018-07-31T16:53:11.247Z,34.00
2018-07-31T16:55:40.513Z,34.03
2018-07-31T16:58:09.765Z,33.93
2018-07-31T17:00:38.767Z,33.94
2018-07-31T17:03:08.063Z,33.94
2018-07-31T17:05:37.899Z,33.93
2018-07-31T17:08:07.873Z,33.86
2018-07-31T17:10:37.024Z,33.80
2018-07-31T17:13:07.238Z,33.79
2018-07-31T17:15:35.564Z,33.73
2018-07-31T17:18:03.919Z,33.71
2018-07-31T17:20:32.258Z,33.72
2018-07-31T17:23:01.428Z,33.63
2018-07-31T17:25:29.758Z,33.65
2018-07-31T17:27:58.054Z,33.62
2018-07-31T17:30:26.445Z,33.56
2018-07-31T17:32:54.777Z,33.42
2018-07-31T17:35:23.151Z,33.36
2018-07-31T17:37:51.950Z,33.30
2018-07-31T17:40:20.261Z,33.20
2018-07-31T17:42:48.619Z,33.12
2018-07-31T17:45:16.907Z,33.15
2018-07-31T17:47:45.246Z,33.03
2018-07-31T17:50:13.538Z,32.94
2018-07-31T17:52:41.924Z,32.93
2018-07-31T17:55:10.226Z,32.95
2018-07-31T17:57:38.676Z,32.90
2018-07-31T18:00:07.270Z,32.84
2018-07-31T18:02:35.643Z,32.78
2018-07-31T18:05:04.118Z,32.76
2018-07-31T18:07:32.419Z,32.71
2018-07-31T18:10:00.722Z,32.72
2018-07-31T18:12:29.112Z,32.68
2018-07-31T18:14:57.457Z,32.64
2018-07-31T18:17:25.801Z,32.58
2018-07-31T18:19:54.097Z,32.44
2018-07-31T18:22:22.395Z,32.35
2018-07-31T18:24:50.717Z,32.30
2018-07-31T18:27:19.095Z,32.27
2018-07-31T18:29:47.414Z,32.25
2018-07-31T18:32:15.742Z,32.21
2018-07-31T18:34:44.066Z,32.12
2018-07-31T18:37:12.412Z,32.06
2018-07-31T18:39:41.521Z,31.92
2018-07-31T18:42:10.368Z,31.90
2018-07-31T18:44:38.715Z,31.88
2018-07-31T18:47:07.109Z,31.83
2018-07-31T18:49:35.439Z,31.69
2018-07-31T18:52:03.760Z,31.65
2018-07-31T18:54:32.071Z,31.64
2018-07-31T18:57:00.388Z,31.58
2018-07-31T18:59:28.731Z,31.44
2018-07-31T19:01:57.124Z,31.35
2018-07-31T19:04:25.652Z,31.35
2018-07-31T19:06:54.074Z,31.25
2018-07-31T19:09:22.408Z,31.25
2018-07-31T19:11:50.790Z,31.19
2018-07-31T19:14:19.166Z,31.17
2018-07-31T19:16:47.504Z,31.05
2018-07-31T19:19:15.843Z,31.00
2018-07-31T19:21:45.190Z,30.91
2018-07-31T19:24:13.507Z,30.88
2018-07-31T19:26:42.910Z,30.89
2018-07-31T19:29:11.181Z,30.81
2018-07-31T19:31:39.526Z,30.78
2018-07-31T19:34:07.893Z,30.75
2018-07-31T19:36:36.209Z,30.68
2018-07-31T19:39:06.426Z,30.63
2018-07-31T19:41:34.759Z,30.41
2018-07-31T19:44:03.110Z,30.32
2018-07-31T19:46:31.498Z,30.18
2018-07-31T19:48:59.846Z,30.08
2018-07-31T19:51:28.266Z,29.99
2018-07-31T19:53:56.672Z,29.93
2018-07-31T19:56:25.003Z,29.90
2018-07-31T19:58:53.332Z,29.75
2018-07-31T20:01:21.633Z,29.62
2018-07-31T20:03:49.963Z,29.54
2018-07-31T20:06:18.275Z,29.41
2018-07-31T20:08:46.599Z,29.58
2018-07-31T20:11:14.921Z,29.64
2018-07-31T20:13:43.229Z,29.45
2018-07-31T20:16:11.548Z,29.25
2018-07-31T20:18:39.953Z,29.18
2018-07-31T20:21:08.380Z,29.13
2018-07-31T20:23:37.057Z,28.85
2018-07-31T20:26:05.391Z,28.77
2018-07-31T20:28:33.727Z,28.61
2018-07-31T20:31:02.030Z,28.44
2018-07-31T20:33:30.866Z,28.21
2018-07-31T20:35:59.183Z,28.10
2018-07-31T20:38:27.805Z,27.92
2018-07-31T20:40:56.199Z,27.86
2018-07-31T20:43:24.553Z,27.77
2018-07-31T20:45:52.844Z,27.68
2018-07-31T20:48:21.248Z,27.46
2018-07-31T20:50:49.576Z,27.48
2018-07-31T20:53:17.938Z,27.34
2018-07-31T20:55:46.247Z,27.40
2018-07-31T20:58:15.018Z,27.25
2018-07-31T21:00:45.153Z,27.18
2018-07-31T21:03:13.570Z,27.03
2018-07-31T21:05:42.225Z,27.02
2018-07-31T21:08:10.612Z,26.99
2018-07-31T21:10:38.981Z,27.02
2018-07-31T21:13:07.500Z,26.95
2018-07-31T21:15:36.110Z,26.83
2018-07-31T21:18:04.512Z,26.78
2018-07-31T21:20:32.805Z,26.75
2018-07-31T21:23:01.182Z,26.56
2018-07-31T21:25:29.648Z,26.45
2018-07-31T21:27:57.982Z,26.50
2018-07-31T21:30:26.325Z,26.39
2018-07-31T21:32:55.088Z,26.40
2018-07-31T21:35:23.907Z,26.37
2018-07-31T21:37:52.515Z,26.34
2018-07-31T21:40:20.995Z,26.07
2018-07-31T21:42:49.592Z,26.04
2018-07-31T21:45:18.034Z,26.14
2018-07-31T21:47:46.440Z,26.06
2018-07-31T21:50:14.815Z,26.08
2018-07-31T21:52:43.210Z,26.02
2018-07-31T21:55:11.536Z,25.92
2018-07-31T21:57:39.918Z,25.79
2018-07-31T22:00:10.133Z,25.85
2018-07-31T22:02:38.612Z,25.77
2018-07-31T22:05:07.000Z,25.84
2018-07-31T22:07:35.384Z,25.74
2018-07-31T22:10:03.787Z,25.61
2018-07-31T22:12:32.135Z,25.53
2018-07-31T22:15:00.551Z,25.51
2018-07-31T22:17:28.924Z,25.43
2018-07-31T22:19:57.282Z,25.45
2018-07-31T22:22:25.656Z,25.38
2018-07-31T22:24:54.056Z,25.33
2018-07-31T22:27:22.523Z,25.33
2018-07-31T22:29:50.836Z,25.28
2018-07-31T22:32:19.243Z,25.21
2018-07-31T22:34:47.572Z,25.17
2018-07-31T22:37:15.924Z,25.07
2018-07-31T22:39:44.292Z,25.09
2018-07-31T22:42:12.728Z,25.07
2018-07-31T22:44:41.047Z,25.02
2018-07-31T22:47:09.412Z,24.98
2018-07-31T22:49:37.733Z,24.90
2018-07-31T22:52:06.127Z,24.87
2018-07-31T22:54:34.553Z,24.74
2018-07-31T22:57:02.955Z,24.72
2018-07-31T22:59:31.309Z,24.73
2018-07-31T23:01:59.722Z,24.70
2018-07-31T23:04:28.051Z,24.69
2018-07-31T23:06:56.409Z,24.69
2018-07-31T23:09:24.719Z,24.65
2018-07-31T23:11:53.050Z,24.55
2018-07-31T23:14:21.336Z,24.62
2018-07-31T23:16:49.686Z,24.55
2018-07-31T23:19:18.063Z,24.45
2018-07-31T23:21:46.475Z,24.40
2018-07-31T23:24:14.817Z,24.36
2018-07-31T23:26:43.196Z,24.26
2018-07-31T23:29:11.579Z,24.22
2018-07-31T23:31:39.965Z,24.26
2018-07-31T23:34:08.342Z,24.23
2018-07-31T23:36:37.126Z,24.16
2018-07-31T23:39:07.985Z,24.16
2018-07-31T23:41:36.570Z,24.06
2018-07-31T23:44:04.978Z,24.04
2018-07-31T23:46:33.332Z,23.91
2018-07-31T23:49:01.657Z,23.90
2018-07-31T23:51:30.045Z,23.87
2018-07-31T23:53:58.380Z,23.76
2018-07-31T23:56:26.747Z,23.71
2018-07-31T23:58:55.077Z,23.64
